sensor_id;sensor_type;location;lat;lon;timestamp;P1;durP1;ratioP1;P2;durP2;ratioP2
62687;SDS011;48752;51.056;17.056;2023-03-01T00:01:03;80.50;;;38.33;;
62687;SDS011;48752;51.056;17.056;2023-03-01T00:03:30;77.45;;;37.78;;
62687;SDS011;48752;51.056;17.056;2023-03-01T00:05:57;83.60;;;39.90;;
62687;SDS011;48752;51.056;17.056;2023-03-01T00:08:23;94.32;;;41.90;;
62687;SDS011;48752;51.056;17.056;2023-03-01T00:10:59;86.25;;;40.45;;
62687;SDS011;48752;51.056;17.056;2023-03-01T00:13:25;92.55;;;42.42;;
62687;SDS011;48752;51.056;17.056;2023-03-01T00:15:51;88.93;;;42.30;;
62687;SDS011;48752;51.056;17.056;2023-03-01T00:18:18;105.25;;;44.75;;
62687;SDS011;48752;51.056;17.056;2023-03-01T00:20:51;97.47;;;43.75;;
62687;SDS011;48752;51.056;17.056;2023-03-01T00:23:18;101.32;;;46.20;;
62687;SDS011;48752;51.056;17.056;2023-03-01T00:25:44;81.10;;;41.67;;
62687;SDS011;48752;51.056;17.056;2023-03-01T00:28:11;99.97;;;44.13;;
62687;SDS011;48752;51.056;17.056;2023-03-01T00:33:38;92.53;;;41.15;;
62687;SDS011;48752;51.056;17.056;2023-03-01T00:36:11;100.68;;;41.10;;
62687;SDS011;48752;51.056;17.056;2023-03-01T00:38:42;89.80;;;42.58;;
62687;SDS011;48752;51.056;17.056;2023-03-01T00:41:13;89.43;;;39.97;;
62687;SDS011;48752;51.056;17.056;2023-03-01T00:43:40;93.53;;;39.78;;
62687;SDS011;48752;51.056;17.056;2023-03-01T00:46:08;85.18;;;38.03;;
62687;SDS011;48752;51.056;17.056;2023-03-01T00:48:36;85.88;;;38.95;;
62687;SDS011;48752;51.056;17.056;2023-03-01T00:51:14;95.65;;;40.08;;
62687;SDS011;48752;51.056;17.056;2023-03-01T00:53:43;91.05;;;39.60;;
62687;SDS011;48752;51.056;17.056;2023-03-01T00:56:10;82.63;;;39.95;;
62687;SDS011;48752;51.056;17.056;2023-03-01T00:58:39;86.15;;;38.03;;
62687;SDS011;48752;51.056;17.056;2023-03-01T01:01:13;93.32;;;41.03;;
62687;SDS011;48752;51.056;17.056;2023-03-01T01:03:49;82.18;;;37.15;;
62687;SDS011;48752;51.056;17.056;2023-03-01T01:06:21;83.03;;;36.28;;
62687;SDS011;48752;51.056;17.056;2023-03-01T01:08:55;85.15;;;38.17;;
62687;SDS011;48752;51.056;17.056;2023-03-01T01:11:22;88.15;;;38.60;;
62687;SDS011;48752;51.056;17.056;2023-03-01T01:13:51;85.22;;;39.35;;
62687;SDS011;48752;51.056;17.056;2023-03-01T01:16:18;91.05;;;39.92;;
62687;SDS011;48752;51.056;17.056;2023-03-01T01:18:53;84.47;;;37.60;;
62687;SDS011;48752;51.056;17.056;2023-03-01T01:21:22;89.28;;;40.00;;
62687;SDS011;48752;51.056;17.056;2023-03-01T01:23:50;90.70;;;40.25;;
62687;SDS011;48752;51.056;17.056;2023-03-01T01:26:18;98.03;;;42.88;;
62687;SDS011;48752;51.056;17.056;2023-03-01T01:28:46;90.35;;;41.72;;
62687;SDS011;48752;51.056;17.056;2023-03-01T01:31:13;98.50;;;42.70;;
62687;SDS011;48752;51.056;17.056;2023-03-01T01:33:40;98.13;;;44.95;;
62687;SDS011;48752;51.056;17.056;2023-03-01T01:36:07;97.70;;;44.95;;
62687;SDS011;48752;51.056;17.056;2023-03-01T01:38:34;109.28;;;43.85;;
62687;SDS011;48752;51.056;17.056;2023-03-01T01:41:09;89.78;;;41.13;;
62687;SDS011;48752;51.056;17.056;2023-03-01T01:43:38;96.47;;;40.60;;
62687;SDS011;48752;51.056;17.056;2023-03-01T01:51:58;94.22;;;42.03;;
62687;SDS011;48752;51.056;17.056;2023-03-01T01:55:00;102.60;;;43.22;;
62687;SDS011;48752;51.056;17.056;2023-03-01T01:57:20;90.00;;;42.25;;
62687;SDS011;48752;51.056;17.056;2023-03-01T01:59:51;83.18;;;43.28;;
62687;SDS011;48752;51.056;17.056;2023-03-01T02:02:18;94.85;;;41.67;;
62687;SDS011;48752;51.056;17.056;2023-03-01T02:04:44;96.35;;;41.78;;
62687;SDS011;48752;51.056;17.056;2023-03-01T02:07:22;99.07;;;45.00;;
62687;SDS011;48752;51.056;17.056;2023-03-01T02:09:50;92.32;;;41.85;;
62687;SDS011;48752;51.056;17.056;2023-03-01T02:12:17;100.20;;;44.42;;
62687;SDS011;48752;51.056;17.056;2023-03-01T02:14:45;97.55;;;41.65;;
62687;SDS011;48752;51.056;17.056;2023-03-01T02:17:11;95.97;;;42.38;;
62687;SDS011;48752;51.056;17.056;2023-03-01T02:28:35;93.60;;;41.53;;
62687;SDS011;48752;51.056;17.056;2023-03-01T02:31:07;89.95;;;41.42;;
62687;SDS011;48752;51.056;17.056;2023-03-01T02:33:55;101.32;;;43.53;;
62687;SDS011;48752;51.056;17.056;2023-03-01T02:36:31;88.72;;;40.45;;
62687;SDS011;48752;51.056;17.056;2023-03-01T02:39:01;89.47;;;42.78;;
62687;SDS011;48752;51.056;17.056;2023-03-01T02:41:30;83.88;;;41.92;;
62687;SDS011;48752;51.056;17.056;2023-03-01T02:43:59;86.72;;;39.58;;
62687;SDS011;48752;51.056;17.056;2023-03-01T02:46:25;92.47;;;41.33;;
62687;SDS011;48752;51.056;17.056;2023-03-01T02:48:55;100.60;;;41.13;;
62687;SDS011;48752;51.056;17.056;2023-03-01T02:54:26;89.75;;;42.13;;
62687;SDS011;48752;51.056;17.056;2023-03-01T02:57:15;97.63;;;42.05;;
62687;SDS011;48752;51.056;17.056;2023-03-01T02:59:40;92.03;;;41.90;;
62687;SDS011;48752;51.056;17.056;2023-03-01T03:02:20;92.57;;;42.30;;
62687;SDS011;48752;51.056;17.056;2023-03-01T03:07:51;98.85;;;44.15;;
62687;SDS011;48752;51.056;17.056;2023-03-01T03:10:19;103.78;;;44.55;;
62687;SDS011;48752;51.056;17.056;2023-03-01T03:13:08;98.57;;;44.42;;
62687;SDS011;48752;51.056;17.056;2023-03-01T03:15:56;105.72;;;42.95;;
62687;SDS011;48752;51.056;17.056;2023-03-01T03:18:22;93.65;;;43.33;;
62687;SDS011;48752;51.056;17.056;2023-03-01T03:20:51;98.35;;;42.72;;
62687;SDS011;48752;51.056;17.056;2023-03-01T03:23:18;104.25;;;46.45;;
62687;SDS011;48752;51.056;17.056;2023-03-01T03:25:44;98.78;;;44.45;;
62687;SDS011;48752;51.056;17.056;2023-03-01T03:28:13;99.25;;;45.50;;
62687;SDS011;48752;51.056;17.056;2023-03-01T03:30:40;98.57;;;45.65;;
62687;SDS011;48752;51.056;17.056;2023-03-01T03:33:07;100.55;;;45.38;;
62687;SDS011;48752;51.056;17.056;2023-03-01T03:35:34;97.63;;;43.97;;
62687;SDS011;48752;51.056;17.056;2023-03-01T03:38:05;100.82;;;45.90;;
62687;SDS011;48752;51.056;17.056;2023-03-01T03:40:40;107.88;;;46.53;;
62687;SDS011;48752;51.056;17.056;2023-03-01T03:43:09;107.95;;;44.75;;
62687;SDS011;48752;51.056;17.056;2023-03-01T03:45:40;102.90;;;45.65;;
62687;SDS011;48752;51.056;17.056;2023-03-01T03:48:07;105.00;;;47.20;;
62687;SDS011;48752;51.056;17.056;2023-03-01T03:50:35;98.30;;;44.58;;
62687;SDS011;48752;51.056;17.056;2023-03-01T03:53:04;105.75;;;45.75;;
62687;SDS011;48752;51.056;17.056;2023-03-01T03:55:33;110.97;;;49.22;;
62687;SDS011;48752;51.056;17.056;2023-03-01T03:58:01;125.25;;;50.83;;
62687;SDS011;48752;51.056;17.056;2023-03-01T04:00:31;124.97;;;55.78;;
62687;SDS011;48752;51.056;17.056;2023-03-01T04:02:59;112.25;;;50.10;;
62687;SDS011;48752;51.056;17.056;2023-03-01T04:05:31;122.63;;;53.08;;
62687;SDS011;48752;51.056;17.056;2023-03-01T04:10:30;114.40;;;51.42;;
62687;SDS011;48752;51.056;17.056;2023-03-01T04:13:15;111.72;;;45.95;;
62687;SDS011;48752;51.056;17.056;2023-03-01T04:15:50;106.95;;;44.88;;
62687;SDS011;48752;51.056;17.056;2023-03-01T04:18:17;112.65;;;49.03;;
62687;SDS011;48752;51.056;17.056;2023-03-01T04:20:44;98.13;;;40.85;;
62687;SDS011;48752;51.056;17.056;2023-03-01T04:23:14;113.28;;;44.67;;
62687;SDS011;48752;51.056;17.056;2023-03-01T04:25:57;114.25;;;47.95;;
62687;SDS011;48752;51.056;17.056;2023-03-01T04:28:27;96.90;;;44.60;;
62687;SDS011;48752;51.056;17.056;2023-03-01T04:30:56;105.47;;;45.47;;
62687;SDS011;48752;51.056;17.056;2023-03-01T04:33:23;102.07;;;44.28;;
62687;SDS011;48752;51.056;17.056;2023-03-01T04:35:50;104.60;;;47.13;;
62687;SDS011;48752;51.056;17.056;2023-03-01T04:38:19;114.25;;;46.08;;
62687;SDS011;48752;51.056;17.056;2023-03-01T04:40:47;104.80;;;45.28;;
62687;SDS011;48752;51.056;17.056;2023-03-01T04:43:13;114.15;;;48.67;;
62687;SDS011;48752;51.056;17.056;2023-03-01T04:45:40;116.05;;;48.78;;
62687;SDS011;48752;51.056;17.056;2023-03-01T04:48:06;114.75;;;47.95;;
62687;SDS011;48752;51.056;17.056;2023-03-01T04:50:32;101.90;;;44.28;;
62687;SDS011;48752;51.056;17.056;2023-03-01T04:52:57;109.38;;;44.75;;
62687;SDS011;48752;51.056;17.056;2023-03-01T04:55:25;100.75;;;44.17;;
62687;SDS011;48752;51.056;17.056;2023-03-01T04:57:58;108.32;;;45.60;;
62687;SDS011;48752;51.056;17.056;2023-03-01T05:00:24;97.30;;;46.35;;
62687;SDS011;48752;51.056;17.056;2023-03-01T05:02:51;104.18;;;45.33;;
62687;SDS011;48752;51.056;17.056;2023-03-01T05:05:23;106.60;;;47.97;;
62687;SDS011;48752;51.056;17.056;2023-03-01T05:07:56;104.95;;;46.20;;
62687;SDS011;48752;51.056;17.056;2023-03-01T05:10:24;110.15;;;48.60;;
62687;SDS011;48752;51.056;17.056;2023-03-01T05:12:59;95.65;;;44.22;;
62687;SDS011;48752;51.056;17.056;2023-03-01T05:15:26;105.38;;;45.30;;
62687;SDS011;48752;51.056;17.056;2023-03-01T05:18:01;101.13;;;45.13;;
62687;SDS011;48752;51.056;17.056;2023-03-01T05:20:33;99.40;;;43.60;;
62687;SDS011;48752;51.056;17.056;2023-03-01T05:23:01;100.85;;;46.40;;
62687;SDS011;48752;51.056;17.056;2023-03-01T05:25:34;102.88;;;41.85;;
62687;SDS011;48752;51.056;17.056;2023-03-01T05:28:01;91.20;;;41.20;;
62687;SDS011;48752;51.056;17.056;2023-03-01T05:30:37;98.82;;;45.08;;
62687;SDS011;48752;51.056;17.056;2023-03-01T05:33:07;96.43;;;44.40;;
62687;SDS011;48752;51.056;17.056;2023-03-01T05:35:47;110.82;;;48.05;;
62687;SDS011;48752;51.056;17.056;2023-03-01T05:38:15;101.57;;;43.60;;
62687;SDS011;48752;51.056;17.056;2023-03-01T05:40:45;104.03;;;45.40;;
62687;SDS011;48752;51.056;17.056;2023-03-01T05:43:12;106.55;;;47.45;;
62687;SDS011;48752;51.056;17.056;2023-03-01T05:45:41;115.38;;;49.08;;
62687;SDS011;48752;51.056;17.056;2023-03-01T05:48:10;113.30;;;48.17;;
62687;SDS011;48752;51.056;17.056;2023-03-01T05:50:37;108.40;;;46.83;;
62687;SDS011;48752;51.056;17.056;2023-03-01T05:53:13;118.75;;;50.30;;
62687;SDS011;48752;51.056;17.056;2023-03-01T05:55:40;147.10;;;56.85;;
62687;SDS011;48752;51.056;17.056;2023-03-01T05:58:09;162.10;;;62.33;;
62687;SDS011;48752;51.056;17.056;2023-03-01T06:00:36;220.25;;;82.20;;
62687;SDS011;48752;51.056;17.056;2023-03-01T06:03:05;207.45;;;77.95;;
62687;SDS011;48752;51.056;17.056;2023-03-01T06:05:33;165.88;;;66.13;;
62687;SDS011;48752;51.056;17.056;2023-03-01T06:07:59;136.82;;;55.10;;
62687;SDS011;48752;51.056;17.056;2023-03-01T06:10:25;101.63;;;47.80;;
62687;SDS011;48752;51.056;17.056;2023-03-01T06:12:58;108.30;;;49.13;;
62687;SDS011;48752;51.056;17.056;2023-03-01T06:15:24;114.97;;;50.13;;
62687;SDS011;48752;51.056;17.056;2023-03-01T06:17:49;124.97;;;54.22;;
62687;SDS011;48752;51.056;17.056;2023-03-01T06:20:19;104.57;;;48.75;;
62687;SDS011;48752;51.056;17.056;2023-03-01T06:22:49;102.00;;;49.13;;
62687;SDS011;48752;51.056;17.056;2023-03-01T06:25:17;98.85;;;44.75;;
62687;SDS011;48752;51.056;17.056;2023-03-01T06:27:44;102.32;;;44.05;;
62687;SDS011;48752;51.056;17.056;2023-03-01T06:30:11;88.28;;;40.97;;
62687;SDS011;48752;51.056;17.056;2023-03-01T06:32:39;94.82;;;43.28;;
62687;SDS011;48752;51.056;17.056;2023-03-01T06:35:07;90.25;;;41.33;;
62687;SDS011;48752;51.056;17.056;2023-03-01T06:37:33;87.53;;;43.40;;
62687;SDS011;48752;51.056;17.056;2023-03-01T06:39:58;97.05;;;41.78;;
62687;SDS011;48752;51.056;17.056;2023-03-01T06:42:24;94.43;;;43.15;;
62687;SDS011;48752;51.056;17.056;2023-03-01T06:44:49;95.47;;;45.35;;
62687;SDS011;48752;51.056;17.056;2023-03-01T06:47:14;90.13;;;41.63;;
62687;SDS011;48752;51.056;17.056;2023-03-01T06:49:40;93.13;;;43.95;;
62687;SDS011;48752;51.056;17.056;2023-03-01T06:52:06;110.03;;;46.80;;
62687;SDS011;48752;51.056;17.056;2023-03-01T06:54:31;84.88;;;40.13;;
62687;SDS011;48752;51.056;17.056;2023-03-01T06:56:57;83.95;;;41.88;;
62687;SDS011;48752;51.056;17.056;2023-03-01T06:59:22;85.18;;;40.38;;
62687;SDS011;48752;51.056;17.056;2023-03-01T07:01:47;79.07;;;41.40;;
62687;SDS011;48752;51.056;17.056;2023-03-01T07:04:13;88.90;;;39.53;;
62687;SDS011;48752;51.056;17.056;2023-03-01T07:06:38;84.88;;;42.42;;
62687;SDS011;48752;51.056;17.056;2023-03-01T07:09:04;88.10;;;40.17;;
62687;SDS011;48752;51.056;17.056;2023-03-01T07:11:30;102.07;;;46.45;;
62687;SDS011;48752;51.056;17.056;2023-03-01T07:13:56;110.35;;;47.40;;
62687;SDS011;48752;51.056;17.056;2023-03-01T07:16:23;118.82;;;45.80;;
62687;SDS011;48752;51.056;17.056;2023-03-01T07:18:49;125.90;;;50.95;;
62687;SDS011;48752;51.056;17.056;2023-03-01T07:21:14;122.03;;;48.83;;
62687;SDS011;48752;51.056;17.056;2023-03-01T07:23:41;120.97;;;49.70;;
62687;SDS011;48752;51.056;17.056;2023-03-01T07:26:06;103.63;;;45.63;;
62687;SDS011;48752;51.056;17.056;2023-03-01T07:28:32;97.18;;;43.00;;
62687;SDS011;48752;51.056;17.056;2023-03-01T07:31:03;90.32;;;41.55;;
62687;SDS011;48752;51.056;17.056;2023-03-01T07:33:28;91.38;;;40.30;;
62687;SDS011;48752;51.056;17.056;2023-03-01T07:35:57;86.43;;;40.53;;
62687;SDS011;48752;51.056;17.056;2023-03-01T07:38:24;92.90;;;43.80;;
62687;SDS011;48752;51.056;17.056;2023-03-01T07:40:50;80.53;;;41.42;;
62687;SDS011;48752;51.056;17.056;2023-03-01T07:43:15;83.97;;;40.10;;
62687;SDS011;48752;51.056;17.056;2023-03-01T07:45:41;91.57;;;42.28;;
62687;SDS011;48752;51.056;17.056;2023-03-01T07:48:06;89.70;;;43.22;;
62687;SDS011;48752;51.056;17.056;2023-03-01T07:50:31;83.25;;;44.08;;
62687;SDS011;48752;51.056;17.056;2023-03-01T07:52:57;88.47;;;44.72;;
62687;SDS011;48752;51.056;17.056;2023-03-01T07:55:22;85.63;;;43.05;;
62687;SDS011;48752;51.056;17.056;2023-03-01T07:57:50;86.22;;;43.90;;
62687;SDS011;48752;51.056;17.056;2023-03-01T08:00:17;90.05;;;45.92;;
62687;SDS011;48752;51.056;17.056;2023-03-01T08:03:01;87.63;;;44.00;;
62687;SDS011;48752;51.056;17.056;2023-03-01T08:05:27;78.15;;;43.78;;
62687;SDS011;48752;51.056;17.056;2023-03-01T08:07:54;79.15;;;44.72;;
62687;SDS011;48752;51.056;17.056;2023-03-01T08:10:21;74.80;;;41.85;;
62687;SDS011;48752;51.056;17.056;2023-03-01T08:12:53;72.32;;;42.38;;
62687;SDS011;48752;51.056;17.056;2023-03-01T08:15:18;70.95;;;39.33;;
62687;SDS011;48752;51.056;17.056;2023-03-01T08:17:45;62.28;;;35.38;;
62687;SDS011;48752;51.056;17.056;2023-03-01T08:20:10;52.67;;;31.95;;
62687;SDS011;48752;51.056;17.056;2023-03-01T08:22:38;49.55;;;30.67;;
62687;SDS011;48752;51.056;17.056;2023-03-01T08:25:06;58.50;;;33.03;;
62687;SDS011;48752;51.056;17.056;2023-03-01T08:27:32;54.33;;;30.45;;
62687;SDS011;48752;51.056;17.056;2023-03-01T08:29:58;55.28;;;32.05;;
62687;SDS011;48752;51.056;17.056;2023-03-01T08:32:24;50.80;;;29.52;;
62687;SDS011;48752;51.056;17.056;2023-03-01T08:34:50;53.85;;;31.05;;
62687;SDS011;48752;51.056;17.056;2023-03-01T08:37:17;54.08;;;32.65;;
62687;SDS011;48752;51.056;17.056;2023-03-01T08:39:42;52.22;;;29.73;;
62687;SDS011;48752;51.056;17.056;2023-03-01T08:42:07;47.25;;;29.40;;
62687;SDS011;48752;51.056;17.056;2023-03-01T08:44:33;51.70;;;30.48;;
62687;SDS011;48752;51.056;17.056;2023-03-01T08:47:00;55.15;;;30.17;;
62687;SDS011;48752;51.056;17.056;2023-03-01T08:49:28;47.92;;;30.33;;
62687;SDS011;48752;51.056;17.056;2023-03-01T08:51:53;52.15;;;30.60;;
62687;SDS011;48752;51.056;17.056;2023-03-01T08:54:20;30.55;;;21.85;;
62687;SDS011;48752;51.056;17.056;2023-03-01T08:56:52;33.53;;;23.45;;
62687;SDS011;48752;51.056;17.056;2023-03-01T08:59:18;22.58;;;14.05;;
62687;SDS011;48752;51.056;17.056;2023-03-01T09:01:46;24.50;;;17.65;;
62687;SDS011;48752;51.056;17.056;2023-03-01T09:04:12;27.60;;;16.65;;
62687;SDS011;48752;51.056;17.056;2023-03-01T09:06:41;31.52;;;20.88;;
62687;SDS011;48752;51.056;17.056;2023-03-01T09:09:10;32.38;;;20.23;;
62687;SDS011;48752;51.056;17.056;2023-03-01T09:11:39;38.40;;;22.45;;
62687;SDS011;48752;51.056;17.056;2023-03-01T09:14:05;41.55;;;24.33;;
62687;SDS011;48752;51.056;17.056;2023-03-01T09:16:30;40.95;;;24.65;;
62687;SDS011;48752;51.056;17.056;2023-03-01T09:19:02;34.60;;;20.65;;
62687;SDS011;48752;51.056;17.056;2023-03-01T09:21:28;36.88;;;21.98;;
62687;SDS011;48752;51.056;17.056;2023-03-01T09:23:55;35.35;;;21.75;;
62687;SDS011;48752;51.056;17.056;2023-03-01T09:26:22;42.00;;;23.67;;
62687;SDS011;48752;51.056;17.056;2023-03-01T09:28:48;42.60;;;22.50;;
62687;SDS011;48752;51.056;17.056;2023-03-01T09:31:15;44.75;;;22.90;;
62687;SDS011;48752;51.056;17.056;2023-03-01T09:33:42;44.55;;;22.65;;
62687;SDS011;48752;51.056;17.056;2023-03-01T09:36:10;35.97;;;21.52;;
62687;SDS011;48752;51.056;17.056;2023-03-01T09:38:39;38.80;;;22.52;;
62687;SDS011;48752;51.056;17.056;2023-03-01T09:41:10;40.17;;;23.30;;
62687;SDS011;48752;51.056;17.056;2023-03-01T09:47:29;40.10;;;22.13;;
62687;SDS011;48752;51.056;17.056;2023-03-01T09:50:04;38.72;;;23.00;;
62687;SDS011;48752;51.056;17.056;2023-03-01T09:55:34;47.00;;;24.10;;
62687;SDS011;48752;51.056;17.056;2023-03-01T10:01:23;40.17;;;23.95;;
62687;SDS011;48752;51.056;17.056;2023-03-01T10:04:11;51.67;;;23.73;;
62687;SDS011;48752;51.056;17.056;2023-03-01T10:09:43;46.03;;;24.55;;
62687;SDS011;48752;51.056;17.056;2023-03-01T10:12:10;39.30;;;22.10;;
62687;SDS011;48752;51.056;17.056;2023-03-01T10:14:42;35.22;;;21.77;;
62687;SDS011;48752;51.056;17.056;2023-03-01T10:22:44;37.92;;;23.55;;
62687;SDS011;48752;51.056;17.056;2023-03-01T10:25:15;43.80;;;22.85;;
62687;SDS011;48752;51.056;17.056;2023-03-01T10:27:49;47.40;;;22.25;;
62687;SDS011;48752;51.056;17.056;2023-03-01T10:33:07;38.67;;;21.00;;
62687;SDS011;48752;51.056;17.056;2023-03-01T10:35:44;38.53;;;21.85;;
62687;SDS011;48752;51.056;17.056;2023-03-01T10:38:11;46.13;;;22.77;;
62687;SDS011;48752;51.056;17.056;2023-03-01T10:40:50;44.17;;;22.05;;
62687;SDS011;48752;51.056;17.056;2023-03-01T10:43:18;42.33;;;21.55;;
62687;SDS011;48752;51.056;17.056;2023-03-01T10:45:44;40.53;;;23.25;;
62687;SDS011;48752;51.056;17.056;2023-03-01T10:48:12;35.53;;;19.38;;
62687;SDS011;48752;51.056;17.056;2023-03-01T10:50:46;33.05;;;20.42;;
62687;SDS011;48752;51.056;17.056;2023-03-01T10:53:27;31.98;;;19.52;;
62687;SDS011;48752;51.056;17.056;2023-03-01T10:55:57;33.95;;;19.30;;
62687;SDS011;48752;51.056;17.056;2023-03-01T10:58:26;30.17;;;18.17;;
62687;SDS011;48752;51.056;17.056;2023-03-01T11:01:43;30.55;;;17.02;;
62687;SDS011;48752;51.056;17.056;2023-03-01T11:06:40;30.80;;;17.67;;
62687;SDS011;48752;51.056;17.056;2023-03-01T11:09:23;35.47;;;18.02;;
62687;SDS011;48752;51.056;17.056;2023-03-01T11:11:57;29.80;;;18.92;;
62687;SDS011;48752;51.056;17.056;2023-03-01T11:14:27;34.72;;;18.45;;
62687;SDS011;48752;51.056;17.056;2023-03-01T11:17:01;32.05;;;20.55;;
62687;SDS011;48752;51.056;17.056;2023-03-01T11:25:37;33.10;;;18.80;;
62687;SDS011;48752;51.056;17.056;2023-03-01T11:28:14;33.70;;;18.00;;
62687;SDS011;48752;51.056;17.056;2023-03-01T11:33:46;30.90;;;16.13;;
62687;SDS011;48752;51.056;17.056;2023-03-01T11:39:02;32.70;;;17.67;;
62687;SDS011;48752;51.056;17.056;2023-03-01T11:41:31;33.53;;;17.50;;
62687;SDS011;48752;51.056;17.056;2023-03-01T11:44:15;34.90;;;17.58;;
62687;SDS011;48752;51.056;17.056;2023-03-01T11:49:36;27.85;;;16.48;;
62687;SDS011;48752;51.056;17.056;2023-03-01T12:11:54;22.73;;;12.68;;
62687;SDS011;48752;51.056;17.056;2023-03-01T12:28:09;19.52;;;10.45;;
62687;SDS011;48752;51.056;17.056;2023-03-01T12:38:42;19.45;;;10.48;;
62687;SDS011;48752;51.056;17.056;2023-03-01T12:49:19;24.27;;;12.65;;
62687;SDS011;48752;51.056;17.056;2023-03-01T12:51:58;25.23;;;11.65;;
62687;SDS011;48752;51.056;17.056;2023-03-01T12:54:26;24.92;;;13.15;;
62687;SDS011;48752;51.056;17.056;2023-03-01T12:56:54;20.35;;;12.05;;
62687;SDS011;48752;51.056;17.056;2023-03-01T12:59:27;24.55;;;13.30;;
62687;SDS011;48752;51.056;17.056;2023-03-01T13:08:02;19.73;;;11.40;;
62687;SDS011;48752;51.056;17.056;2023-03-01T13:10:39;17.20;;;9.98;;
62687;SDS011;48752;51.056;17.056;2023-03-01T13:15:50;17.67;;;9.23;;
62687;SDS011;48752;51.056;17.056;2023-03-01T13:20:45;15.70;;;9.45;;
62687;SDS011;48752;51.056;17.056;2023-03-01T13:26:03;20.70;;;11.15;;
62687;SDS011;48752;51.056;17.056;2023-03-01T13:31:55;21.95;;;9.18;;
62687;SDS011;48752;51.056;17.056;2023-03-01T13:33:59;17.35;;;9.45;;
62687;SDS011;48752;51.056;17.056;2023-03-01T13:47:03;14.05;;;8.45;;
62687;SDS011;48752;51.056;17.056;2023-03-01T13:50:18;20.27;;;10.73;;
62687;SDS011;48752;51.056;17.056;2023-03-01T13:57:42;12.68;;;7.35;;
62687;SDS011;48752;51.056;17.056;2023-03-01T14:03:15;15.32;;;7.95;;
62687;SDS011;48752;51.056;17.056;2023-03-01T14:05:44;14.98;;;7.30;;
62687;SDS011;48752;51.056;17.056;2023-03-01T14:08:24;13.35;;;7.90;;
62687;SDS011;48752;51.056;17.056;2023-03-01T14:21:32;17.67;;;10.27;;
62687;SDS011;48752;51.056;17.056;2023-03-01T14:23:58;15.18;;;9.52;;
62687;SDS011;48752;51.056;17.056;2023-03-01T14:26:24;16.90;;;8.32;;
62687;SDS011;48752;51.056;17.056;2023-03-01T14:28:50;15.13;;;8.30;;
62687;SDS011;48752;51.056;17.056;2023-03-01T14:31:35;12.13;;;7.38;;
62687;SDS011;48752;51.056;17.056;2023-03-01T14:34:04;12.57;;;8.00;;
62687;SDS011;48752;51.056;17.056;2023-03-01T14:36:33;13.65;;;8.15;;
62687;SDS011;48752;51.056;17.056;2023-03-01T14:39:15;15.55;;;9.70;;
62687;SDS011;48752;51.056;17.056;2023-03-01T14:41:42;16.70;;;9.00;;
62687;SDS011;48752;51.056;17.056;2023-03-01T14:44:12;15.23;;;8.77;;
62687;SDS011;48752;51.056;17.056;2023-03-01T14:46:46;17.15;;;8.93;;
62687;SDS011;48752;51.056;17.056;2023-03-01T14:51:57;14.30;;;8.13;;
62687;SDS011;48752;51.056;17.056;2023-03-01T14:54:49;14.43;;;7.55;;
62687;SDS011;48752;51.056;17.056;2023-03-01T15:00:31;19.60;;;8.95;;
62687;SDS011;48752;51.056;17.056;2023-03-01T15:03:00;16.38;;;8.55;;
62687;SDS011;48752;51.056;17.056;2023-03-01T15:05:39;19.60;;;9.00;;
62687;SDS011;48752;51.056;17.056;2023-03-01T15:08:07;17.38;;;9.43;;
62687;SDS011;48752;51.056;17.056;2023-03-01T15:11:00;24.65;;;9.80;;
62687;SDS011;48752;51.056;17.056;2023-03-01T15:13:29;18.67;;;9.88;;
62687;SDS011;48752;51.056;17.056;2023-03-01T15:16:15;18.92;;;9.50;;
62687;SDS011;48752;51.056;17.056;2023-03-01T15:18:47;14.57;;;8.77;;
62687;SDS011;48752;51.056;17.056;2023-03-01T15:21:25;18.20;;;10.32;;
62687;SDS011;48752;51.056;17.056;2023-03-01T15:26:55;19.90;;;9.65;;
62687;SDS011;48752;51.056;17.056;2023-03-01T15:29:24;17.85;;;9.77;;
62687;SDS011;48752;51.056;17.056;2023-03-01T15:32:30;16.83;;;10.10;;
62687;SDS011;48752;51.056;17.056;2023-03-01T15:41:02;18.40;;;9.30;;
62687;SDS011;48752;51.056;17.056;2023-03-01T15:43:36;20.75;;;10.15;;
62687;SDS011;48752;51.056;17.056;2023-03-01T15:46:19;23.33;;;10.65;;
62687;SDS011;48752;51.056;17.056;2023-03-01T15:48:48;19.40;;;9.65;;
62687;SDS011;48752;51.056;17.056;2023-03-01T15:51:17;22.33;;;10.25;;
62687;SDS011;48752;51.056;17.056;2023-03-01T15:54:05;26.45;;;11.65;;
62687;SDS011;48752;51.056;17.056;2023-03-01T15:56:36;23.67;;;11.48;;
62687;SDS011;48752;51.056;17.056;2023-03-01T15:59:02;21.10;;;11.88;;
62687;SDS011;48752;51.056;17.056;2023-03-01T16:01:29;20.45;;;11.20;;
62687;SDS011;48752;51.056;17.056;2023-03-01T16:03:55;31.08;;;13.52;;
62687;SDS011;48752;51.056;17.056;2023-03-01T16:06:41;21.65;;;12.10;;
62687;SDS011;48752;51.056;17.056;2023-03-01T16:09:06;21.20;;;11.30;;
62687;SDS011;48752;51.056;17.056;2023-03-01T16:11:32;22.67;;;11.57;;
62687;SDS011;48752;51.056;17.056;2023-03-01T16:13:59;21.27;;;10.65;;
62687;SDS011;48752;51.056;17.056;2023-03-01T16:16:24;20.60;;;11.85;;
62687;SDS011;48752;51.056;17.056;2023-03-01T16:18:49;25.70;;;12.23;;
62687;SDS011;48752;51.056;17.056;2023-03-01T16:21:24;28.02;;;13.52;;
62687;SDS011;48752;51.056;17.056;2023-03-01T16:23:50;30.33;;;15.15;;
62687;SDS011;48752;51.056;17.056;2023-03-01T16:26:16;30.05;;;16.20;;
62687;SDS011;48752;51.056;17.056;2023-03-01T16:28:43;29.85;;;13.93;;
62687;SDS011;48752;51.056;17.056;2023-03-01T16:31:10;26.25;;;12.80;;
62687;SDS011;48752;51.056;17.056;2023-03-01T16:33:37;42.28;;;17.23;;
62687;SDS011;48752;51.056;17.056;2023-03-01T16:36:10;27.85;;;14.80;;
62687;SDS011;48752;51.056;17.056;2023-03-01T16:38:37;46.35;;;20.60;;
62687;SDS011;48752;51.056;17.056;2023-03-01T16:41:17;42.28;;;21.92;;
62687;SDS011;48752;51.056;17.056;2023-03-01T16:43:46;40.58;;;19.52;;
62687;SDS011;48752;51.056;17.056;2023-03-01T16:46:14;34.88;;;18.17;;
62687;SDS011;48752;51.056;17.056;2023-03-01T16:48:43;34.92;;;18.88;;
62687;SDS011;48752;51.056;17.056;2023-03-01T16:51:10;36.70;;;17.73;;
62687;SDS011;48752;51.056;17.056;2023-03-01T16:53:37;36.03;;;17.55;;
62687;SDS011;48752;51.056;17.056;2023-03-01T16:56:03;42.97;;;20.58;;
62687;SDS011;48752;51.056;17.056;2023-03-01T16:58:32;46.35;;;20.73;;
62687;SDS011;48752;51.056;17.056;2023-03-01T17:01:01;46.28;;;20.90;;
62687;SDS011;48752;51.056;17.056;2023-03-01T17:03:40;38.10;;;19.65;;
62687;SDS011;48752;51.056;17.056;2023-03-01T17:06:07;47.65;;;21.48;;
62687;SDS011;48752;51.056;17.056;2023-03-01T17:08:35;51.95;;;25.15;;
62687;SDS011;48752;51.056;17.056;2023-03-01T17:11:19;68.43;;;31.20;;
62687;SDS011;48752;51.056;17.056;2023-03-01T17:13:45;78.50;;;34.75;;
62687;SDS011;48752;51.056;17.056;2023-03-01T17:16:13;59.13;;;29.20;;
62687;SDS011;48752;51.056;17.056;2023-03-01T17:18:42;82.68;;;43.30;;